createdAt,value
2023-05-24T00:01:26.604Z,20.37
2023-05-24T00:04:00.920Z,17.57
2023-05-24T00:06:37.187Z,14.90
2023-05-24T00:09:22.757Z,14.53
2023-05-24T00:11:56.050Z,25.83
2023-05-24T00:14:29.396Z,18.20
2023-05-24T00:17:02.760Z,21.67
2023-05-24T00:19:38.343Z,22.57
2023-05-24T00:22:14.015Z,21.73
2023-05-24T00:24:47.434Z,17.37
2023-05-24T00:27:20.850Z,24.43
2023-05-24T00:29:54.107Z,24.50
2023-05-24T00:32:27.695Z,16.07
2023-05-24T00:35:01.005Z,18.67
2023-05-24T00:37:34.359Z,19.23
2023-05-24T00:40:08.688Z,20.27
2023-05-24T00:42:42.213Z,19.33
2023-05-24T00:45:16.502Z,17.23
2023-05-24T00:47:50.982Z,23.30
2023-05-24T00:50:24.857Z,23.67
2023-05-24T00:53:01.906Z,18.70
2023-05-24T00:55:37.154Z,18.03
2023-05-24T00:58:10.744Z,16.30
2023-05-24T01:00:49.724Z,18.93
2023-05-24T01:03:23.547Z,24.83
2023-05-24T01:05:58.046Z,22.37
2023-05-24T01:08:49.305Z,20.93
2023-05-24T01:11:36.743Z,17.77
2023-05-24T01:14:27.286Z,22.33
2023-05-24T01:17:11.813Z,17.07
2023-05-24T01:20:06.727Z,18.90
2023-05-24T01:23:08.699Z,17.83
2023-05-24T01:26:13.740Z,21.60
2023-05-24T01:28:48.593Z,22.63
2023-05-24T01:31:24.211Z,21.37
2023-05-24T01:33:57.894Z,20.27
2023-05-24T01:36:31.422Z,22.13
2023-05-24T01:39:05.630Z,18.27
2023-05-24T01:41:53.003Z,29.27
2023-05-24T01:44:38.942Z,26.77
2023-05-24T01:47:29.620Z,18.57
2023-05-24T01:50:12.538Z,24.97
2023-05-24T01:52:48.420Z,18.77
2023-05-24T01:55:24.045Z,17.50
2023-05-24T01:58:02.926Z,21.70
2023-05-24T02:00:38.492Z,19.97
2023-05-24T02:03:13.371Z,24.10
2023-05-24T02:05:47.929Z,22.57
2023-05-24T02:08:21.203Z,16.47
2023-05-24T02:10:54.494Z,22.70
2023-05-24T02:13:27.742Z,19.10
2023-05-24T02:16:01.024Z,20.97
2023-05-24T02:18:35.728Z,22.30
2023-05-24T02:21:09.402Z,26.67
2023-05-24T02:23:42.612Z,22.67
2023-05-24T02:26:17.709Z,21.50
2023-05-24T02:28:52.016Z,20.30
2023-05-24T02:31:28.730Z,24.70
2023-05-24T02:34:02.698Z,20.50
2023-05-24T02:36:37.276Z,20.03
2023-05-24T02:39:10.868Z,19.53
2023-05-24T02:41:44.572Z,20.70
2023-05-24T02:44:17.825Z,28.70
2023-05-24T02:46:50.815Z,26.40
2023-05-24T02:49:24.070Z,24.33
2023-05-24T02:51:57.504Z,23.47
2023-05-24T02:54:31.040Z,20.90
2023-05-24T02:57:06.533Z,21.90
2023-05-24T02:59:39.812Z,27.23
2023-05-24T03:02:14.828Z,29.60
2023-05-24T03:04:48.684Z,31.43
2023-05-24T03:07:22.257Z,24.03
2023-05-24T03:09:55.613Z,31.90
2023-05-24T03:12:29.021Z,30.33
2023-05-24T03:15:02.258Z,30.53
2023-05-24T03:17:35.541Z,24.10
2023-05-24T03:20:11.665Z,30.60
2023-05-24T03:22:45.061Z,25.03
2023-05-24T03:25:18.708Z,26.43
2023-05-24T03:27:52.353Z,28.77
2023-05-24T03:30:26.786Z,26.50
2023-05-24T03:32:59.816Z,29.13
2023-05-24T03:35:33.430Z,32.23
2023-05-24T03:38:06.790Z,28.10
2023-05-24T03:40:40.412Z,30.30
2023-05-24T03:43:15.967Z,26.23
2023-05-24T03:45:49.455Z,28.83
2023-05-24T03:48:23.026Z,23.27
2023-05-24T03:50:56.307Z,25.77
2023-05-24T03:53:29.650Z,26.93
2023-05-24T03:56:02.955Z,28.27
2023-05-24T03:58:36.347Z,25.60
2023-05-24T04:01:12.599Z,25.27
2023-05-24T04:03:51.279Z,28.33
2023-05-24T04:06:28.848Z,27.93
2023-05-24T04:09:05.494Z,24.23
2023-05-24T04:11:39.159Z,36.67
2023-05-24T04:14:12.589Z,23.73
2023-05-24T04:16:45.999Z,21.50
2023-05-24T04:19:19.360Z,31.43
2023-05-24T04:21:52.632Z,30.50
2023-05-24T04:24:25.977Z,21.27
2023-05-24T04:26:59.891Z,24.93
2023-05-24T04:29:33.863Z,29.07
2023-05-24T04:32:07.181Z,21.00
2023-05-24T04:34:42.611Z,31.20
2023-05-24T04:37:17.138Z,31.07
2023-05-24T04:39:51.629Z,27.60
2023-05-24T04:42:25.200Z,28.67
2023-05-24T04:44:58.707Z,24.47
2023-05-24T04:47:32.164Z,26.93
2023-05-24T04:50:06.327Z,22.87
2023-05-24T04:52:39.829Z,24.27
2023-05-24T04:55:15.109Z,23.90
2023-05-24T04:57:48.434Z,23.77
2023-05-24T05:00:23.860Z,20.33
2023-05-24T05:02:57.392Z,28.97
2023-05-24T05:05:31.399Z,24.70
2023-05-24T05:08:04.860Z,26.53
2023-05-24T05:10:38.655Z,29.03
2023-05-24T05:13:11.955Z,30.90
2023-05-24T05:15:45.239Z,24.43
2023-05-24T05:18:18.674Z,23.57
2023-05-24T05:20:52.773Z,29.87
2023-05-24T05:23:26.128Z,25.90
2023-05-24T05:25:59.384Z,21.47
2023-05-24T05:28:32.632Z,28.17
2023-05-24T05:31:05.951Z,28.83
2023-05-24T05:33:39.474Z,29.93
2023-05-24T05:36:12.800Z,28.77
2023-05-24T05:38:46.482Z,26.43
2023-05-24T05:41:21.150Z,26.97
2023-05-24T05:43:54.417Z,24.90
2023-05-24T05:46:27.764Z,24.43
2023-05-24T05:49:01.474Z,30.73
2023-05-24T05:51:34.862Z,23.83
2023-05-24T05:54:08.840Z,28.30
2023-05-24T05:56:45.644Z,28.57
2023-05-24T05:59:19.566Z,25.70
2023-05-24T06:01:52.968Z,29.63
2023-05-24T06:04:26.245Z,28.20
2023-05-24T06:06:59.490Z,23.40
2023-05-24T06:09:33.123Z,30.57
2023-05-24T06:12:07.641Z,24.70
2023-05-24T06:14:40.935Z,24.23
2023-05-24T06:17:14.315Z,22.23
2023-05-24T06:19:47.856Z,29.90
2023-05-24T06:22:21.565Z,20.53
2023-05-24T06:24:55.153Z,26.10
2023-05-24T06:27:28.736Z,31.60
2023-05-24T06:30:02.039Z,22.27
2023-05-24T06:32:35.692Z,22.73
2023-05-24T06:35:11.389Z,21.73
2023-05-24T06:37:44.653Z,24.83
2023-05-24T06:40:19.028Z,25.97
2023-05-24T06:42:52.422Z,26.17
2023-05-24T06:45:25.769Z,22.70
2023-05-24T06:47:59.145Z,21.90
2023-05-24T06:50:33.000Z,25.67
2023-05-24T06:53:06.726Z,28.37
2023-05-24T06:55:40.096Z,20.37
2023-05-24T06:58:14.536Z,25.23
2023-05-24T07:00:48.025Z,20.50
2023-05-24T07:03:21.635Z,26.67
2023-05-24T07:05:54.935Z,24.93
2023-05-24T07:08:28.439Z,25.73
2023-05-24T07:11:02.267Z,22.50
2023-05-24T07:13:36.114Z,26.60
2023-05-24T07:16:11.699Z,25.87
2023-05-24T07:18:45.210Z,22.93
2023-05-24T07:21:18.476Z,23.83
2023-05-24T07:23:53.248Z,20.13
2023-05-24T07:26:26.589Z,19.47
2023-05-24T07:29:00.007Z,21.37
2023-05-24T07:31:34.789Z,19.53
2023-05-24T07:34:08.425Z,24.00
2023-05-24T07:36:42.287Z,20.77
2023-05-24T07:39:16.721Z,23.67
2023-05-24T07:41:50.840Z,18.37
2023-05-24T07:44:24.624Z,22.07
2023-05-24T07:46:58.449Z,18.97
2023-05-24T07:49:32.530Z,19.60
2023-05-24T07:52:06.182Z,20.70
2023-05-24T07:54:39.204Z,19.60
2023-05-24T07:57:12.548Z,25.77
2023-05-24T07:59:46.192Z,20.20
2023-05-24T08:02:20.012Z,24.43
2023-05-24T08:04:53.704Z,28.73
2023-05-24T08:07:27.180Z,23.17
2023-05-24T08:10:00.534Z,25.33
2023-05-24T08:12:34.124Z,20.93
2023-05-24T08:15:08.677Z,20.80
2023-05-24T08:17:43.056Z,21.10
2023-05-24T08:20:17.869Z,22.33
2023-05-24T08:22:51.654Z,27.87
2023-05-24T08:25:24.624Z,22.87
2023-05-24T08:27:58.239Z,24.77
2023-05-24T08:30:32.365Z,25.63
2023-05-24T08:33:06.136Z,23.13
2023-05-24T08:35:39.842Z,23.00
2023-05-24T08:38:14.329Z,21.67
2023-05-24T08:40:48.974Z,19.23
2023-05-24T08:43:24.570Z,24.07
2023-05-24T08:46:00.138Z,18.13
2023-05-24T08:48:35.942Z,22.27
2023-05-24T08:51:11.513Z,20.37
2023-05-24T08:53:50.057Z,14.53
2023-05-24T08:56:26.443Z,17.80
2023-05-24T08:59:00.490Z,18.93
2023-05-24T09:01:39.118Z,18.83
2023-05-24T09:04:12.918Z,20.37
2023-05-24T09:06:47.644Z,17.80
2023-05-24T09:09:26.660Z,21.40
2023-05-24T09:12:05.991Z,18.27
2023-05-24T09:14:39.788Z,21.27
2023-05-24T09:17:15.932Z,21.27
2023-05-24T09:19:54.123Z,21.73
2023-05-24T09:22:31.137Z,22.57
2023-05-24T09:25:08.019Z,17.70
2023-05-24T09:27:41.499Z,20.80
2023-05-24T09:30:19.080Z,23.57
2023-05-24T09:33:03.963Z,21.13
2023-05-24T09:35:37.291Z,19.77
2023-05-24T09:38:19.722Z,22.27
2023-05-24T09:41:02.067Z,17.80
2023-05-24T09:43:47.706Z,12.37
2023-05-24T09:46:24.193Z,18.10
2023-05-24T09:49:06.665Z,20.70
2023-05-24T09:51:42.405Z,19.43
2023-05-24T09:54:18.778Z,18.63
2023-05-24T09:56:52.510Z,21.93
2023-05-24T09:59:25.546Z,26.13
2023-05-24T10:02:11.591Z,19.30
2023-05-24T10:04:45.424Z,18.83
2023-05-24T10:07:21.669Z,13.67
2023-05-24T10:09:56.597Z,15.53
2023-05-24T10:12:31.570Z,16.87
2023-05-24T10:15:07.572Z,21.30
2023-05-24T10:17:41.846Z,16.40
2023-05-24T10:20:17.042Z,18.70
2023-05-24T10:23:05.718Z,19.53
2023-05-24T10:25:46.676Z,21.47
2023-05-24T10:28:23.455Z,21.53
2023-05-24T10:31:08.702Z,20.67
2023-05-24T10:33:48.355Z,19.43
2023-05-24T10:36:22.750Z,18.37
2023-05-24T10:38:57.986Z,14.27
2023-05-24T10:41:39.643Z,11.33
2023-05-24T10:44:19.278Z,14.07
2023-05-24T10:47:13.237Z,12.47
2023-05-24T10:49:58.259Z,12.03
2023-05-24T10:52:41.671Z,13.83
2023-05-24T10:55:16.809Z,14.40
2023-05-24T10:57:50.305Z,10.47
2023-05-24T11:00:42.021Z,12.53
2023-05-24T11:03:23.513Z,15.93
2023-05-24T11:05:58.461Z,13.20
2023-05-24T11:08:37.608Z,15.33
2023-05-24T11:11:25.717Z,15.87
2023-05-24T11:14:03.998Z,17.83
2023-05-24T11:16:46.204Z,15.07
2023-05-24T11:19:21.777Z,16.87
2023-05-24T11:22:00.662Z,17.00
2023-05-24T11:24:34.781Z,22.70
2023-05-24T11:27:12.186Z,23.30
2023-05-24T11:29:50.981Z,22.80
2023-05-24T11:32:25.697Z,21.90
2023-05-24T11:34:59.721Z,21.43
2023-05-24T11:37:45.461Z,24.07
2023-05-24T11:40:20.343Z,29.37
2023-05-24T11:42:56.093Z,22.03
2023-05-24T11:45:33.172Z,24.47
2023-05-24T11:48:09.715Z,21.83
2023-05-24T11:50:50.103Z,20.13
2023-05-24T11:53:25.153Z,18.13
2023-05-24T11:55:59.510Z,24.53
2023-05-24T11:58:47.104Z,22.63
2023-05-24T12:01:30.581Z,20.80
2023-05-24T12:04:04.284Z,20.10
2023-05-24T12:06:43.429Z,22.23
2023-05-24T12:09:18.976Z,17.10
2023-05-24T12:11:55.925Z,23.53
2023-05-24T12:14:31.669Z,20.50
2023-05-24T12:17:05.852Z,25.00
2023-05-24T12:19:39.431Z,24.80
2023-05-24T12:22:13.688Z,21.00
2023-05-24T12:24:50.116Z,23.77
2023-05-24T12:27:26.892Z,28.80
2023-05-24T12:30:10.046Z,19.60
2023-05-24T12:32:43.393Z,21.67
2023-05-24T12:35:18.926Z,28.67
2023-05-24T12:37:59.613Z,25.03
2023-05-24T12:40:35.955Z,19.57
2023-05-24T12:43:10.644Z,25.30
2023-05-24T12:45:44.181Z,22.63
2023-05-24T12:48:18.118Z,28.27
2023-05-24T12:50:52.160Z,26.63
2023-05-24T12:53:25.960Z,24.70
2023-05-24T12:56:00.635Z,21.60
2023-05-24T12:58:34.286Z,23.77
2023-05-24T13:01:07.658Z,17.67
2023-05-24T13:03:41.261Z,18.77
2023-05-24T13:06:14.697Z,22.77
2023-05-24T13:08:47.933Z,20.97
2023-05-24T13:11:21.261Z,24.63
2023-05-24T13:13:54.786Z,19.40
2023-05-24T13:16:28.610Z,20.03
2023-05-24T13:19:02.424Z,22.03
2023-05-24T13:21:42.567Z,30.37
2023-05-24T13:24:17.977Z,17.10
2023-05-24T13:26:53.790Z,19.03
2023-05-24T13:29:39.524Z,22.10
2023-05-24T13:32:19.164Z,20.80
2023-05-24T13:34:52.699Z,19.37
2023-05-24T13:37:27.169Z,20.97
2023-05-24T13:40:01.331Z,23.33
2023-05-24T13:42:34.945Z,21.33
2023-05-24T13:45:10.686Z,16.93
2023-05-24T13:47:44.171Z,23.20
2023-05-24T13:50:20.411Z,19.10
2023-05-24T13:52:53.993Z,21.30
2023-05-24T13:55:28.721Z,17.60
2023-05-24T13:58:04.700Z,23.63
2023-05-24T14:00:38.479Z,16.80
2023-05-24T14:03:13.098Z,21.80
2023-05-24T14:05:46.931Z,17.63
2023-05-24T14:08:20.615Z,15.33
2023-05-24T14:10:53.925Z,16.17
2023-05-24T14:14:20.442Z,20.37
2023-05-24T14:16:21.144Z,16.83
2023-05-24T14:18:55.152Z,16.63
2023-05-24T14:21:28.613Z,17.00
2023-05-24T14:24:02.269Z,16.80
2023-05-24T14:26:35.261Z,15.17
2023-05-24T14:29:08.591Z,18.40
2023-05-24T14:31:42.960Z,12.83
2023-05-24T14:34:16.998Z,11.20
2023-05-24T14:36:50.361Z,15.23
2023-05-24T14:39:23.665Z,13.00
2023-05-24T14:41:56.753Z,12.90
2023-05-24T14:44:30.035Z,11.43
2023-05-24T14:47:03.414Z,13.77
2023-05-24T14:49:36.793Z,13.33
2023-05-24T14:52:10.208Z,15.67
2023-05-24T14:54:43.456Z,15.17
2023-05-24T14:57:16.577Z,10.33
2023-05-24T14:59:50.035Z,10.10
2023-05-24T15:02:23.711Z,10.07
2023-05-24T15:04:57.159Z,13.23
2023-05-24T15:07:30.837Z,12.73
2023-05-24T15:10:04.430Z,12.33
2023-05-24T15:12:37.676Z,12.20
2023-05-24T15:15:13.921Z,11.63
2023-05-24T15:17:47.490Z,14.33
2023-05-24T15:20:20.922Z,13.70
2023-05-24T15:22:54.565Z,15.57
2023-05-24T15:25:27.850Z,13.80
2023-05-24T15:28:01.204Z,11.63
2023-05-24T15:30:34.472Z,12.83
2023-05-24T15:33:07.984Z,13.27
2023-05-24T15:35:42.290Z,11.63
2023-05-24T15:38:17.648Z,11.53
2023-05-24T15:40:51.413Z,15.23
2023-05-24T15:43:24.652Z,12.73
2023-05-24T15:45:58.920Z,12.40
2023-05-24T15:48:32.224Z,15.40
2023-05-24T15:51:58.023Z,13.57
2023-05-24T15:54:00.962Z,16.23
2023-05-24T15:56:34.336Z,13.63
2023-05-24T15:59:07.469Z,13.83
2023-05-24T16:01:41.524Z,13.20
2023-05-24T16:04:15.541Z,12.73
2023-05-24T16:06:49.287Z,13.23
2023-05-24T16:09:22.603Z,14.93
2023-05-24T16:11:56.034Z,18.17
2023-05-24T16:14:29.910Z,18.07
2023-05-24T16:17:06.353Z,17.97
2023-05-24T16:19:40.119Z,14.30
2023-05-24T16:22:13.558Z,15.30
2023-05-24T16:24:48.408Z,15.47
2023-05-24T16:27:22.428Z,13.77
2023-05-24T16:29:55.709Z,19.03
2023-05-24T16:32:37.433Z,16.90
2023-05-24T16:35:12.037Z,17.07
2023-05-24T16:37:45.465Z,19.63
2023-05-24T16:40:19.879Z,19.50
2023-05-24T16:42:54.357Z,20.90
2023-05-24T16:45:27.831Z,17.40
2023-05-24T16:48:01.551Z,14.23
2023-05-24T16:50:35.805Z,16.07
2023-05-24T16:53:09.421Z,18.70
2023-05-24T16:55:42.780Z,13.30
2023-05-24T16:58:16.177Z,18.97
2023-05-24T17:00:49.494Z,19.30
2023-05-24T17:03:27.754Z,13.30
2023-05-24T17:06:04.982Z,15.33
2023-05-24T17:08:39.230Z,14.40
2023-05-24T17:11:14.729Z,14.50
2023-05-24T17:13:48.348Z,17.07
2023-05-24T17:16:21.930Z,16.27
2023-05-24T17:18:56.247Z,15.17
2023-05-24T17:21:30.692Z,16.80
2023-05-24T17:24:04.883Z,20.00
2023-05-24T17:26:38.996Z,13.67
2023-05-24T17:29:12.706Z,15.50
2023-05-24T17:31:45.754Z,14.23
2023-05-24T17:34:20.134Z,14.47
2023-05-24T17:36:53.424Z,13.33
2023-05-24T17:39:26.694Z,10.87
2023-05-24T17:42:00.047Z,12.77
2023-05-24T17:44:33.522Z,12.30
2023-05-24T17:47:06.629Z,14.23
2023-05-24T17:49:40.014Z,15.50
2023-05-24T17:52:14.544Z,16.87
2023-05-24T17:54:49.308Z,17.10
2023-05-24T17:57:22.754Z,20.10
2023-05-24T17:59:56.360Z,13.47
2023-05-24T18:02:29.373Z,14.43
2023-05-24T18:05:03.790Z,17.03
2023-05-24T18:07:37.333Z,15.40
2023-05-24T18:10:13.844Z,14.03
2023-05-24T18:12:48.585Z,17.30
2023-05-24T18:15:22.487Z,12.00
2023-05-24T18:17:56.492Z,14.37
2023-05-24T18:20:30.213Z,19.30
2023-05-24T18:23:04.040Z,15.17
2023-05-24T18:25:37.572Z,16.40
2023-05-24T18:28:11.971Z,19.57
2023-05-24T18:30:47.320Z,14.50
2023-05-24T18:33:20.757Z,13.63
2023-05-24T18:35:54.484Z,20.00
2023-05-24T18:38:27.945Z,15.03
2023-05-24T18:41:02.569Z,20.33
2023-05-24T18:43:37.372Z,12.80
2023-05-24T18:46:13.266Z,13.60
2023-05-24T18:48:47.406Z,11.87
2023-05-24T18:51:20.725Z,13.67
2023-05-24T18:53:54.136Z,14.20
2023-05-24T18:56:28.081Z,12.13
2023-05-24T18:59:01.839Z,16.70
2023-05-24T19:01:35.159Z,13.10
2023-05-24T19:04:08.218Z,14.70
2023-05-24T19:06:41.538Z,14.50
2023-05-24T19:09:15.063Z,16.57
2023-05-24T19:11:49.179Z,14.10
2023-05-24T19:14:22.765Z,14.00
2023-05-24T19:16:56.140Z,19.33
2023-05-24T19:19:29.917Z,15.40
2023-05-24T19:22:03.401Z,15.93
2023-05-24T19:24:37.055Z,19.93
2023-05-24T19:27:11.582Z,14.47
2023-05-24T19:29:44.953Z,16.17
2023-05-24T19:32:20.268Z,14.00
2023-05-24T19:34:53.818Z,18.03
2023-05-24T19:37:27.129Z,15.43
2023-05-24T19:40:00.865Z,14.87
2023-05-24T19:42:35.008Z,14.60
2023-05-24T19:45:12.052Z,14.37
2023-05-24T19:47:46.368Z,15.80
2023-05-24T19:50:19.566Z,17.37
2023-05-24T19:52:52.822Z,15.77
2023-05-24T19:55:26.106Z,15.07
2023-05-24T19:57:59.461Z,18.63
2023-05-24T20:00:32.922Z,15.30
2023-05-24T20:03:06.429Z,12.33
2023-05-24T20:05:39.955Z,16.27
2023-05-24T20:08:13.295Z,19.83
2023-05-24T20:10:46.585Z,15.20
2023-05-24T20:13:19.958Z,18.17
2023-05-24T20:15:55.917Z,16.63
2023-05-24T20:18:29.988Z,19.90
2023-05-24T20:21:03.384Z,17.63
2023-05-24T20:23:36.906Z,17.90
2023-05-24T20:26:10.522Z,14.67
2023-05-24T20:28:43.842Z,14.70
2023-05-24T20:31:17.815Z,12.93
2023-05-24T20:33:52.879Z,17.30
2023-05-24T20:36:26.525Z,18.97
2023-05-24T20:38:59.798Z,16.83
2023-05-24T20:41:34.125Z,19.63
2023-05-24T20:44:07.467Z,17.00
2023-05-24T20:46:41.217Z,20.83
2023-05-24T20:49:14.996Z,18.47
2023-05-24T20:51:48.330Z,22.43
2023-05-24T20:54:21.588Z,19.03
2023-05-24T20:56:54.920Z,16.10
2023-05-24T20:59:28.312Z,20.93
2023-05-24T21:02:01.724Z,20.03
2023-05-24T21:04:35.123Z,17.97
2023-05-24T21:07:08.955Z,17.77
2023-05-24T21:09:42.480Z,15.43
2023-05-24T21:12:16.011Z,16.50
2023-05-24T21:14:49.589Z,22.00
2023-05-24T21:17:23.097Z,19.53
2023-05-24T21:19:56.715Z,16.90
2023-05-24T21:22:30.550Z,18.57
2023-05-24T21:25:04.018Z,17.93
2023-05-24T21:27:37.612Z,18.07
2023-05-24T21:30:14.505Z,15.77
2023-05-24T21:32:47.850Z,23.90
2023-05-24T21:35:21.551Z,19.10
2023-05-24T21:37:54.745Z,21.50
2023-05-24T21:40:28.060Z,18.70
2023-05-24T21:43:01.320Z,18.07
2023-05-24T21:45:34.598Z,21.23
2023-05-24T21:48:08.333Z,18.70
2023-05-24T21:50:41.743Z,19.63
2023-05-24T21:53:15.046Z,15.63
2023-05-24T21:55:48.319Z,20.20
2023-05-24T21:58:21.691Z,21.83
2023-05-24T22:00:54.956Z,18.27
2023-05-24T22:03:28.468Z,16.90
2023-05-24T22:06:02.209Z,14.70
2023-05-24T22:08:35.468Z,19.60
2023-05-24T22:11:08.729Z,21.57
2023-05-24T22:13:42.057Z,15.43
2023-05-24T22:16:15.513Z,17.93
2023-05-24T22:18:49.178Z,15.97
2023-05-24T22:21:22.694Z,18.57
2023-05-24T22:23:56.104Z,14.30
2023-05-24T22:26:30.578Z,21.27
2023-05-24T22:29:04.643Z,13.47
2023-05-24T22:31:38.837Z,18.10
2023-05-24T22:34:14.406Z,16.37
2023-05-24T22:36:47.792Z,15.57
2023-05-24T22:39:21.094Z,14.97
2023-05-24T22:41:54.597Z,17.47
2023-05-24T22:44:28.059Z,14.87
2023-05-24T22:47:01.891Z,19.93
2023-05-24T22:49:35.798Z,17.53
2023-05-24T22:52:10.490Z,19.67
2023-05-24T22:54:43.682Z,17.60
2023-05-24T22:57:21.424Z,20.80
2023-05-24T22:59:54.936Z,13.60
2023-05-24T23:02:29.093Z,17.07
2023-05-24T23:05:03.055Z,16.17
2023-05-24T23:07:37.989Z,17.83
2023-05-24T23:10:12.678Z,15.67
2023-05-24T23:12:46.017Z,15.67
2023-05-24T23:15:19.456Z,15.43
2023-05-24T23:17:53.255Z,14.80
2023-05-24T23:20:27.733Z,12.87
2023-05-24T23:23:02.689Z,15.40
2023-05-24T23:25:36.487Z,16.37
2023-05-24T23:28:09.942Z,19.17
2023-05-24T23:30:43.339Z,18.07
2023-05-24T23:33:16.787Z,16.87
2023-05-24T23:35:50.142Z,17.77
2023-05-24T23:38:23.416Z,20.17
2023-05-24T23:40:56.463Z,14.27
2023-05-24T23:43:30.935Z,11.20
2023-05-24T23:46:04.620Z,12.13
2023-05-24T23:48:38.148Z,15.97
2023-05-24T23:51:13.531Z,16.80
2023-05-24T23:53:46.869Z,14.20
2023-05-24T23:56:19.924Z,15.83
2023-05-24T23:58:53.417Z,14.47
